sensor_id;sensor_type;location;lat;lon;timestamp;P1;durP1;ratioP1;P2;durP2;ratioP2
13641;SDS011;6894;52.196;9.904;2023-06-24T00:01:34;7.07;;;4.47;;
13641;SDS011;6894;52.196;9.904;2023-06-24T00:04:01;6.03;;;4.23;;
13641;SDS011;6894;52.196;9.904;2023-06-24T00:06:29;5.40;;;4.77;;
13641;SDS011;6894;52.196;9.904;2023-06-24T00:08:56;5.83;;;4.97;;
13641;SDS011;6894;52.196;9.904;2023-06-24T00:11:26;8.07;;;4.40;;
13641;SDS011;6894;52.196;9.904;2023-06-24T00:13:53;8.10;;;4.83;;
13641;SDS011;6894;52.196;9.904;2023-06-24T00:16:20;7.10;;;4.83;;
13641;SDS011;6894;52.196;9.904;2023-06-24T00:18:52;6.50;;;4.30;;
13641;SDS011;6894;52.196;9.904;2023-06-24T00:21:20;5.53;;;4.40;;
13641;SDS011;6894;52.196;9.904;2023-06-24T00:23:49;7.03;;;4.60;;
13641;SDS011;6894;52.196;9.904;2023-06-24T00:26:15;7.47;;;4.50;;
13641;SDS011;6894;52.196;9.904;2023-06-24T00:28:42;10.30;;;4.67;;
13641;SDS011;6894;52.196;9.904;2023-06-24T00:31:09;7.53;;;4.63;;
13641;SDS011;6894;52.196;9.904;2023-06-24T00:33:36;5.77;;;4.37;;
13641;SDS011;6894;52.196;9.904;2023-06-24T00:36:03;11.00;;;4.60;;
13641;SDS011;6894;52.196;9.904;2023-06-24T00:38:31;9.83;;;4.70;;
13641;SDS011;6894;52.196;9.904;2023-06-24T00:40:59;5.50;;;4.47;;
13641;SDS011;6894;52.196;9.904;2023-06-24T00:43:27;8.37;;;4.23;;
13641;SDS011;6894;52.196;9.904;2023-06-24T00:45:55;6.13;;;4.57;;
13641;SDS011;6894;52.196;9.904;2023-06-24T00:48:21;5.77;;;4.53;;
13641;SDS011;6894;52.196;9.904;2023-06-24T00:50:49;7.37;;;5.27;;
13641;SDS011;6894;52.196;9.904;2023-06-24T00:53:16;5.17;;;4.57;;
13641;SDS011;6894;52.196;9.904;2023-06-24T00:55:43;5.30;;;4.80;;
13641;SDS011;6894;52.196;9.904;2023-06-24T00:58:11;5.73;;;4.07;;
13641;SDS011;6894;52.196;9.904;2023-06-24T01:00:41;7.33;;;4.77;;
13641;SDS011;6894;52.196;9.904;2023-06-24T01:03:09;7.30;;;4.50;;
13641;SDS011;6894;52.196;9.904;2023-06-24T01:05:39;5.33;;;4.40;;
13641;SDS011;6894;52.196;9.904;2023-06-24T01:08:06;5.87;;;5.03;;
13641;SDS011;6894;52.196;9.904;2023-06-24T01:10:33;5.67;;;4.00;;
13641;SDS011;6894;52.196;9.904;2023-06-24T01:13:00;7.63;;;3.90;;
13641;SDS011;6894;52.196;9.904;2023-06-24T01:15:28;6.43;;;4.00;;
13641;SDS011;6894;52.196;9.904;2023-06-24T01:17:56;6.27;;;3.90;;
13641;SDS011;6894;52.196;9.904;2023-06-24T01:20:27;4.90;;;4.40;;
13641;SDS011;6894;52.196;9.904;2023-06-24T01:23:06;10.00;;;5.03;;
13641;SDS011;6894;52.196;9.904;2023-06-24T01:25:52;7.60;;;4.47;;
13641;SDS011;6894;52.196;9.904;2023-06-24T01:28:46;8.00;;;4.43;;
13641;SDS011;6894;52.196;9.904;2023-06-24T01:31:35;5.33;;;4.80;;
13641;SDS011;6894;52.196;9.904;2023-06-24T01:34:06;8.70;;;4.57;;
13641;SDS011;6894;52.196;9.904;2023-06-24T01:36:39;5.53;;;4.80;;
13641;SDS011;6894;52.196;9.904;2023-06-24T01:39:09;4.37;;;3.97;;
13641;SDS011;6894;52.196;9.904;2023-06-24T01:41:39;5.97;;;4.10;;
13641;SDS011;6894;52.196;9.904;2023-06-24T01:44:09;5.20;;;4.70;;
13641;SDS011;6894;52.196;9.904;2023-06-24T01:46:40;6.17;;;5.07;;
13641;SDS011;6894;52.196;9.904;2023-06-24T01:49:08;6.33;;;4.67;;
13641;SDS011;6894;52.196;9.904;2023-06-24T01:51:40;5.60;;;3.90;;
13641;SDS011;6894;52.196;9.904;2023-06-24T01:54:10;6.33;;;4.77;;
13641;SDS011;6894;52.196;9.904;2023-06-24T01:56:41;9.97;;;4.93;;
13641;SDS011;6894;52.196;9.904;2023-06-24T01:59:09;5.13;;;4.00;;
13641;SDS011;6894;52.196;9.904;2023-06-24T02:01:37;5.13;;;3.63;;
13641;SDS011;6894;52.196;9.904;2023-06-24T02:04:06;6.67;;;5.30;;
13641;SDS011;6894;52.196;9.904;2023-06-24T02:06:35;5.40;;;4.07;;
13641;SDS011;6894;52.196;9.904;2023-06-24T02:09:03;6.20;;;4.70;;
13641;SDS011;6894;52.196;9.904;2023-06-24T02:11:31;5.13;;;4.63;;
13641;SDS011;6894;52.196;9.904;2023-06-24T02:14:01;5.97;;;4.10;;
13641;SDS011;6894;52.196;9.904;2023-06-24T02:16:29;5.43;;;4.50;;
13641;SDS011;6894;52.196;9.904;2023-06-24T02:18:59;7.00;;;4.10;;
13641;SDS011;6894;52.196;9.904;2023-06-24T02:21:28;5.83;;;4.20;;
13641;SDS011;6894;52.196;9.904;2023-06-24T02:23:55;5.90;;;4.17;;
13641;SDS011;6894;52.196;9.904;2023-06-24T02:26:23;6.53;;;4.17;;
13641;SDS011;6894;52.196;9.904;2023-06-24T02:28:51;6.63;;;4.20;;
13641;SDS011;6894;52.196;9.904;2023-06-24T02:31:19;11.37;;;4.97;;
13641;SDS011;6894;52.196;9.904;2023-06-24T02:33:46;4.20;;;3.83;;
13641;SDS011;6894;52.196;9.904;2023-06-24T02:36:14;8.53;;;4.80;;
13641;SDS011;6894;52.196;9.904;2023-06-24T02:38:41;10.17;;;5.00;;
13641;SDS011;6894;52.196;9.904;2023-06-24T02:41:07;4.87;;;4.20;;
13641;SDS011;6894;52.196;9.904;2023-06-24T02:43:34;4.93;;;4.07;;
13641;SDS011;6894;52.196;9.904;2023-06-24T02:46:02;4.83;;;4.00;;
13641;SDS011;6894;52.196;9.904;2023-06-24T02:48:31;6.30;;;4.20;;
13641;SDS011;6894;52.196;9.904;2023-06-24T02:51:00;7.83;;;4.83;;
13641;SDS011;6894;52.196;9.904;2023-06-24T02:53:31;6.93;;;4.57;;
13641;SDS011;6894;52.196;9.904;2023-06-24T02:55:58;9.30;;;4.67;;
13641;SDS011;6894;52.196;9.904;2023-06-24T02:58:25;5.53;;;4.37;;
13641;SDS011;6894;52.196;9.904;2023-06-24T03:00:56;4.43;;;3.97;;
13641;SDS011;6894;52.196;9.904;2023-06-24T03:03:25;5.33;;;4.10;;
13641;SDS011;6894;52.196;9.904;2023-06-24T03:05:53;6.30;;;4.37;;
13641;SDS011;6894;52.196;9.904;2023-06-24T03:08:21;4.50;;;4.00;;
13641;SDS011;6894;52.196;9.904;2023-06-24T03:10:50;6.43;;;4.20;;
13641;SDS011;6894;52.196;9.904;2023-06-24T03:13:16;7.77;;;4.23;;
13641;SDS011;6894;52.196;9.904;2023-06-24T03:15:43;7.40;;;4.30;;
13641;SDS011;6894;52.196;9.904;2023-06-24T03:18:10;6.20;;;4.70;;
13641;SDS011;6894;52.196;9.904;2023-06-24T03:20:37;5.73;;;4.03;;
13641;SDS011;6894;52.196;9.904;2023-06-24T03:23:04;4.30;;;3.87;;
13641;SDS011;6894;52.196;9.904;2023-06-24T03:25:31;5.90;;;4.10;;
13641;SDS011;6894;52.196;9.904;2023-06-24T03:27:59;4.60;;;3.87;;
13641;SDS011;6894;52.196;9.904;2023-06-24T03:30:28;6.67;;;4.37;;
13641;SDS011;6894;52.196;9.904;2023-06-24T03:32:56;4.47;;;4.07;;
13641;SDS011;6894;52.196;9.904;2023-06-24T03:35:23;7.30;;;4.50;;
13641;SDS011;6894;52.196;9.904;2023-06-24T03:37:50;11.53;;;4.87;;
13641;SDS011;6894;52.196;9.904;2023-06-24T03:40:16;9.17;;;4.50;;
13641;SDS011;6894;52.196;9.904;2023-06-24T03:42:43;5.97;;;4.10;;
13641;SDS011;6894;52.196;9.904;2023-06-24T03:45:11;5.37;;;4.17;;
13641;SDS011;6894;52.196;9.904;2023-06-24T03:47:38;4.90;;;4.07;;
13641;SDS011;6894;52.196;9.904;2023-06-24T03:50:05;7.70;;;4.33;;
13641;SDS011;6894;52.196;9.904;2023-06-24T03:52:32;7.10;;;4.50;;
13641;SDS011;6894;52.196;9.904;2023-06-24T03:54:59;7.57;;;5.10;;
13641;SDS011;6894;52.196;9.904;2023-06-24T03:57:29;8.83;;;4.63;;
13641;SDS011;6894;52.196;9.904;2023-06-24T03:59:56;6.00;;;4.97;;
13641;SDS011;6894;52.196;9.904;2023-06-24T04:02:24;7.93;;;4.97;;
13641;SDS011;6894;52.196;9.904;2023-06-24T04:04:52;6.57;;;4.80;;
13641;SDS011;6894;52.196;9.904;2023-06-24T04:07:21;7.37;;;4.30;;
13641;SDS011;6894;52.196;9.904;2023-06-24T04:09:53;9.00;;;4.70;;
13641;SDS011;6894;52.196;9.904;2023-06-24T04:12:21;6.53;;;4.20;;
13641;SDS011;6894;52.196;9.904;2023-06-24T04:14:47;6.47;;;5.10;;
13641;SDS011;6894;52.196;9.904;2023-06-24T04:17:14;5.80;;;5.00;;
13641;SDS011;6894;52.196;9.904;2023-06-24T04:19:42;5.73;;;5.23;;
13641;SDS011;6894;52.196;9.904;2023-06-24T04:22:09;5.53;;;4.70;;
13641;SDS011;6894;52.196;9.904;2023-06-24T04:24:36;6.87;;;4.70;;
13641;SDS011;6894;52.196;9.904;2023-06-24T04:27:03;9.60;;;4.40;;
13641;SDS011;6894;52.196;9.904;2023-06-24T04:29:30;5.57;;;4.50;;
13641;SDS011;6894;52.196;9.904;2023-06-24T04:31:57;9.03;;;4.23;;
13641;SDS011;6894;52.196;9.904;2023-06-24T04:34:23;7.80;;;4.10;;
13641;SDS011;6894;52.196;9.904;2023-06-24T04:36:51;5.87;;;4.37;;
13641;SDS011;6894;52.196;9.904;2023-06-24T04:39:18;7.97;;;4.60;;
13641;SDS011;6894;52.196;9.904;2023-06-24T04:41:45;7.70;;;4.57;;
13641;SDS011;6894;52.196;9.904;2023-06-24T04:44:12;7.33;;;4.97;;
13641;SDS011;6894;52.196;9.904;2023-06-24T04:46:39;10.87;;;5.83;;
13641;SDS011;6894;52.196;9.904;2023-06-24T04:49:06;5.70;;;5.20;;
13641;SDS011;6894;52.196;9.904;2023-06-24T04:51:32;7.63;;;4.97;;
13641;SDS011;6894;52.196;9.904;2023-06-24T04:54:00;5.63;;;5.03;;
13641;SDS011;6894;52.196;9.904;2023-06-24T04:56:27;7.27;;;5.07;;
13641;SDS011;6894;52.196;9.904;2023-06-24T04:58:54;7.63;;;4.70;;
13641;SDS011;6894;52.196;9.904;2023-06-24T05:01:21;6.70;;;4.90;;
13641;SDS011;6894;52.196;9.904;2023-06-24T05:03:48;5.33;;;4.60;;
13641;SDS011;6894;52.196;9.904;2023-06-24T05:06:15;8.17;;;4.73;;
13641;SDS011;6894;52.196;9.904;2023-06-24T05:08:41;8.23;;;5.50;;
13641;SDS011;6894;52.196;9.904;2023-06-24T05:11:09;10.07;;;5.30;;
13641;SDS011;6894;52.196;9.904;2023-06-24T05:13:36;9.87;;;5.50;;
13641;SDS011;6894;52.196;9.904;2023-06-24T05:16:03;8.97;;;5.30;;
13641;SDS011;6894;52.196;9.904;2023-06-24T05:18:30;6.73;;;5.13;;
13641;SDS011;6894;52.196;9.904;2023-06-24T05:20:57;7.73;;;4.87;;
13641;SDS011;6894;52.196;9.904;2023-06-24T05:23:24;7.93;;;5.60;;
13641;SDS011;6894;52.196;9.904;2023-06-24T05:25:51;12.20;;;5.23;;
13641;SDS011;6894;52.196;9.904;2023-06-24T05:28:19;7.57;;;4.90;;
13641;SDS011;6894;52.196;9.904;2023-06-24T05:30:45;9.33;;;4.83;;
13641;SDS011;6894;52.196;9.904;2023-06-24T05:33:12;7.57;;;4.77;;
13641;SDS011;6894;52.196;9.904;2023-06-24T05:35:39;11.53;;;5.87;;
13641;SDS011;6894;52.196;9.904;2023-06-24T05:38:06;6.83;;;4.80;;
13641;SDS011;6894;52.196;9.904;2023-06-24T05:40:33;8.13;;;4.60;;
13641;SDS011;6894;52.196;9.904;2023-06-24T05:43:00;8.17;;;4.70;;
13641;SDS011;6894;52.196;9.904;2023-06-24T05:45:29;6.50;;;4.93;;
13641;SDS011;6894;52.196;9.904;2023-06-24T05:47:56;9.07;;;4.80;;
13641;SDS011;6894;52.196;9.904;2023-06-24T05:50:22;4.97;;;4.23;;
13641;SDS011;6894;52.196;9.904;2023-06-24T05:52:49;5.03;;;4.63;;
13641;SDS011;6894;52.196;9.904;2023-06-24T05:55:16;6.27;;;5.27;;
13641;SDS011;6894;52.196;9.904;2023-06-24T05:57:42;5.03;;;4.53;;
13641;SDS011;6894;52.196;9.904;2023-06-24T06:00:09;6.50;;;4.97;;
13641;SDS011;6894;52.196;9.904;2023-06-24T06:02:38;7.27;;;5.03;;
13641;SDS011;6894;52.196;9.904;2023-06-24T06:05:05;6.30;;;5.60;;
13641;SDS011;6894;52.196;9.904;2023-06-24T06:07:32;5.63;;;5.07;;
13641;SDS011;6894;52.196;9.904;2023-06-24T06:09:59;6.43;;;4.87;;
13641;SDS011;6894;52.196;9.904;2023-06-24T06:12:26;5.30;;;4.73;;
13641;SDS011;6894;52.196;9.904;2023-06-24T06:14:53;6.07;;;4.73;;
13641;SDS011;6894;52.196;9.904;2023-06-24T06:17:19;5.60;;;5.10;;
13641;SDS011;6894;52.196;9.904;2023-06-24T06:19:48;5.23;;;4.53;;
13641;SDS011;6894;52.196;9.904;2023-06-24T06:22:14;6.73;;;5.77;;
13641;SDS011;6894;52.196;9.904;2023-06-24T06:24:41;5.33;;;4.73;;
13641;SDS011;6894;52.196;9.904;2023-06-24T06:27:09;7.03;;;4.80;;
13641;SDS011;6894;52.196;9.904;2023-06-24T06:29:36;6.60;;;5.10;;
13641;SDS011;6894;52.196;9.904;2023-06-24T06:32:03;5.07;;;4.53;;
13641;SDS011;6894;52.196;9.904;2023-06-24T06:34:30;6.97;;;5.70;;
13641;SDS011;6894;52.196;9.904;2023-06-24T06:36:58;5.57;;;4.27;;
13641;SDS011;6894;52.196;9.904;2023-06-24T06:39:25;6.13;;;4.40;;
13641;SDS011;6894;52.196;9.904;2023-06-24T06:41:52;5.03;;;4.50;;
13641;SDS011;6894;52.196;9.904;2023-06-24T06:44:19;6.00;;;4.87;;
13641;SDS011;6894;52.196;9.904;2023-06-24T06:46:46;6.53;;;4.27;;
13641;SDS011;6894;52.196;9.904;2023-06-24T06:49:13;4.90;;;4.50;;
13641;SDS011;6894;52.196;9.904;2023-06-24T06:51:39;5.20;;;4.67;;
13641;SDS011;6894;52.196;9.904;2023-06-24T06:54:07;5.57;;;4.73;;
13641;SDS011;6894;52.196;9.904;2023-06-24T06:56:34;5.50;;;4.23;;
13641;SDS011;6894;52.196;9.904;2023-06-24T06:59:01;4.30;;;3.90;;
13641;SDS011;6894;52.196;9.904;2023-06-24T07:01:27;4.40;;;4.00;;
13641;SDS011;6894;52.196;9.904;2023-06-24T07:03:54;5.70;;;3.97;;
13641;SDS011;6894;52.196;9.904;2023-06-24T07:06:21;5.87;;;4.40;;
13641;SDS011;6894;52.196;9.904;2023-06-24T07:08:47;6.07;;;4.10;;
13641;SDS011;6894;52.196;9.904;2023-06-24T07:11:16;5.43;;;4.10;;
13641;SDS011;6894;52.196;9.904;2023-06-24T07:13:42;4.83;;;4.10;;
13641;SDS011;6894;52.196;9.904;2023-06-24T07:16:09;4.40;;;3.93;;
13641;SDS011;6894;52.196;9.904;2023-06-24T07:18:36;4.90;;;4.47;;
13641;SDS011;6894;52.196;9.904;2023-06-24T07:21:03;6.13;;;4.10;;
13641;SDS011;6894;52.196;9.904;2023-06-24T07:23:30;4.57;;;3.90;;
13641;SDS011;6894;52.196;9.904;2023-06-24T07:25:56;5.10;;;3.97;;
13641;SDS011;6894;52.196;9.904;2023-06-24T07:28:24;4.33;;;3.93;;
13641;SDS011;6894;52.196;9.904;2023-06-24T07:30:51;4.23;;;3.87;;
13641;SDS011;6894;52.196;9.904;2023-06-24T07:33:18;5.37;;;3.30;;
13641;SDS011;6894;52.196;9.904;2023-06-24T07:35:45;3.50;;;3.20;;
13641;SDS011;6894;52.196;9.904;2023-06-24T07:38:11;4.03;;;3.37;;
13641;SDS011;6894;52.196;9.904;2023-06-24T07:40:39;6.63;;;3.30;;
13641;SDS011;6894;52.196;9.904;2023-06-24T07:43:05;4.07;;;3.20;;
13641;SDS011;6894;52.196;9.904;2023-06-24T07:45:33;3.83;;;3.37;;
13641;SDS011;6894;52.196;9.904;2023-06-24T07:48:00;3.10;;;2.80;;
13641;SDS011;6894;52.196;9.904;2023-06-24T07:50:27;4.53;;;2.93;;
13641;SDS011;6894;52.196;9.904;2023-06-24T07:52:53;3.07;;;2.77;;
13641;SDS011;6894;52.196;9.904;2023-06-24T07:55:20;3.10;;;2.80;;
13641;SDS011;6894;52.196;9.904;2023-06-24T07:57:47;2.97;;;2.67;;
13641;SDS011;6894;52.196;9.904;2023-06-24T08:00:14;5.03;;;3.10;;
13641;SDS011;6894;52.196;9.904;2023-06-24T08:02:43;3.40;;;3.10;;
13641;SDS011;6894;52.196;9.904;2023-06-24T08:05:10;4.67;;;3.00;;
13641;SDS011;6894;52.196;9.904;2023-06-24T08:07:37;3.97;;;3.10;;
13641;SDS011;6894;52.196;9.904;2023-06-24T08:10:04;4.93;;;3.00;;
13641;SDS011;6894;52.196;9.904;2023-06-24T08:12:31;12.57;;;2.97;;
13641;SDS011;6894;52.196;9.904;2023-06-24T08:14:58;4.30;;;2.97;;
13641;SDS011;6894;52.196;9.904;2023-06-24T08:17:25;5.50;;;2.73;;
13641;SDS011;6894;52.196;9.904;2023-06-24T08:19:53;4.50;;;2.80;;
13641;SDS011;6894;52.196;9.904;2023-06-24T08:22:19;3.17;;;2.87;;
13641;SDS011;6894;52.196;9.904;2023-06-24T08:24:46;4.10;;;2.20;;
13641;SDS011;6894;52.196;9.904;2023-06-24T08:27:13;2.57;;;2.23;;
13641;SDS011;6894;52.196;9.904;2023-06-24T08:29:40;2.80;;;2.57;;
13641;SDS011;6894;52.196;9.904;2023-06-24T08:32:06;2.67;;;2.23;;
13641;SDS011;6894;52.196;9.904;2023-06-24T08:34:33;1.80;;;1.63;;
13641;SDS011;6894;52.196;9.904;2023-06-24T08:37:01;2.43;;;2.00;;
13641;SDS011;6894;52.196;9.904;2023-06-24T08:39:29;3.20;;;2.67;;
13641;SDS011;6894;52.196;9.904;2023-06-24T08:41:55;2.83;;;2.50;;
13641;SDS011;6894;52.196;9.904;2023-06-24T08:44:22;3.23;;;2.80;;
13641;SDS011;6894;52.196;9.904;2023-06-24T08:46:49;2.83;;;2.50;;
13641;SDS011;6894;52.196;9.904;2023-06-24T08:49:17;4.70;;;3.05;;
13641;SDS011;6894;52.196;9.904;2023-06-24T08:51:54;4.47;;;3.00;;
13641;SDS011;6894;52.196;9.904;2023-06-24T08:54:27;3.60;;;3.03;;
13641;SDS011;6894;52.196;9.904;2023-06-24T08:56:56;3.53;;;3.22;;
13641;SDS011;6894;52.196;9.904;2023-06-24T08:59:23;3.22;;;2.85;;
13641;SDS011;6894;52.196;9.904;2023-06-24T09:01:50;3.67;;;3.20;;
13641;SDS011;6894;52.196;9.904;2023-06-24T09:04:16;3.47;;;3.17;;
13641;SDS011;6894;52.196;9.904;2023-06-24T09:06:43;3.40;;;3.13;;
13641;SDS011;6894;52.196;9.904;2023-06-24T09:09:16;3.83;;;3.53;;
13641;SDS011;6894;52.196;9.904;2023-06-24T09:11:46;4.28;;;3.88;;
13641;SDS011;6894;52.196;9.904;2023-06-24T09:14:17;4.97;;;3.88;;
13641;SDS011;6894;52.196;9.904;2023-06-24T09:16:50;3.60;;;3.13;;
13641;SDS011;6894;52.196;9.904;2023-06-24T09:19:19;5.18;;;3.70;;
13641;SDS011;6894;52.196;9.904;2023-06-24T09:21:47;3.67;;;3.38;;
13641;SDS011;6894;52.196;9.904;2023-06-24T09:24:13;3.75;;;3.45;;
13641;SDS011;6894;52.196;9.904;2023-06-24T09:26:42;3.78;;;3.40;;
13641;SDS011;6894;52.196;9.904;2023-06-24T09:29:11;4.55;;;3.90;;
13641;SDS011;6894;52.196;9.904;2023-06-24T09:31:45;4.70;;;3.67;;
13641;SDS011;6894;52.196;9.904;2023-06-24T09:34:13;3.60;;;3.30;;
13641;SDS011;6894;52.196;9.904;2023-06-24T09:36:41;3.55;;;2.85;;
13641;SDS011;6894;52.196;9.904;2023-06-24T09:39:08;3.60;;;3.30;;
13641;SDS011;6894;52.196;9.904;2023-06-24T09:41:35;3.63;;;3.33;;
13641;SDS011;6894;52.196;9.904;2023-06-24T09:44:02;3.50;;;3.20;;
13641;SDS011;6894;52.196;9.904;2023-06-24T09:46:36;4.38;;;3.22;;
13641;SDS011;6894;52.196;9.904;2023-06-24T09:49:03;3.40;;;3.10;;
13641;SDS011;6894;52.196;9.904;2023-06-24T09:51:32;4.38;;;3.25;;
13641;SDS011;6894;52.196;9.904;2023-06-24T09:54:03;3.40;;;3.10;;
13641;SDS011;6894;52.196;9.904;2023-06-24T09:56:32;3.47;;;3.17;;
13641;SDS011;6894;52.196;9.904;2023-06-24T09:59:01;3.78;;;3.47;;
13641;SDS011;6894;52.196;9.904;2023-06-24T10:01:29;3.75;;;3.15;;
13641;SDS011;6894;52.196;9.904;2023-06-24T10:03:59;3.80;;;3.28;;
13641;SDS011;6894;52.196;9.904;2023-06-24T10:06:26;3.85;;;3.08;;
13641;SDS011;6894;52.196;9.904;2023-06-24T10:08:54;4.28;;;2.95;;
13641;SDS011;6894;52.196;9.904;2023-06-24T10:11:21;3.63;;;3.10;;
13641;SDS011;6894;52.196;9.904;2023-06-24T10:13:48;2.83;;;2.60;;
13641;SDS011;6894;52.196;9.904;2023-06-24T10:16:15;3.10;;;2.80;;
13641;SDS011;6894;52.196;9.904;2023-06-24T10:18:43;2.92;;;2.72;;
13641;SDS011;6894;52.196;9.904;2023-06-24T10:21:15;3.67;;;3.10;;
13641;SDS011;6894;52.196;9.904;2023-06-24T10:23:42;2.90;;;2.70;;
13641;SDS011;6894;52.196;9.904;2023-06-24T10:26:22;3.75;;;3.45;;
13641;SDS011;6894;52.196;9.904;2023-06-24T10:29:08;3.30;;;3.00;;
13641;SDS011;6894;52.196;9.904;2023-06-24T10:31:53;4.28;;;3.25;;
13641;SDS011;6894;52.196;9.904;2023-06-24T10:34:22;3.80;;;2.90;;
13641;SDS011;6894;52.196;9.904;2023-06-24T10:36:54;4.13;;;3.42;;
13641;SDS011;6894;52.196;9.904;2023-06-24T10:39:38;3.17;;;2.88;;
13641;SDS011;6894;52.196;9.904;2023-06-24T10:44:51;3.53;;;3.25;;
13641;SDS011;6894;52.196;9.904;2023-06-24T10:47:19;4.80;;;3.30;;
13641;SDS011;6894;52.196;9.904;2023-06-24T10:49:47;4.32;;;3.70;;
13641;SDS011;6894;52.196;9.904;2023-06-24T10:52:16;4.57;;;3.38;;
13641;SDS011;6894;52.196;9.904;2023-06-24T10:54:44;3.63;;;3.03;;
13641;SDS011;6894;52.196;9.904;2023-06-24T10:57:11;3.90;;;3.60;;
13641;SDS011;6894;52.196;9.904;2023-06-24T10:59:39;3.20;;;2.88;;
13641;SDS011;6894;52.196;9.904;2023-06-24T11:02:07;3.35;;;3.05;;
13641;SDS011;6894;52.196;9.904;2023-06-24T11:04:41;3.25;;;2.95;;
13641;SDS011;6894;52.196;9.904;2023-06-24T11:07:08;3.80;;;3.40;;
13641;SDS011;6894;52.196;9.904;2023-06-24T11:09:36;3.33;;;3.13;;
13641;SDS011;6894;52.196;9.904;2023-06-24T11:12:03;3.78;;;3.47;;
13641;SDS011;6894;52.196;9.904;2023-06-24T11:14:32;3.92;;;3.53;;
13641;SDS011;6894;52.196;9.904;2023-06-24T11:17:00;3.42;;;3.13;;
13641;SDS011;6894;52.196;9.904;2023-06-24T11:19:27;3.65;;;3.35;;
13641;SDS011;6894;52.196;9.904;2023-06-24T11:21:58;3.85;;;3.55;;
13641;SDS011;6894;52.196;9.904;2023-06-24T11:24:25;4.00;;;3.60;;
13641;SDS011;6894;52.196;9.904;2023-06-24T11:26:53;4.95;;;3.78;;
13641;SDS011;6894;52.196;9.904;2023-06-24T11:29:21;4.03;;;3.72;;
13641;SDS011;6894;52.196;9.904;2023-06-24T11:31:47;4.40;;;3.08;;
13641;SDS011;6894;52.196;9.904;2023-06-24T11:34:14;3.75;;;3.45;;
13641;SDS011;6894;52.196;9.904;2023-06-24T11:36:41;3.35;;;3.15;;
13641;SDS011;6894;52.196;9.904;2023-06-24T11:39:08;3.58;;;3.33;;
13641;SDS011;6894;52.196;9.904;2023-06-24T11:41:36;4.40;;;4.00;;
13641;SDS011;6894;52.196;9.904;2023-06-24T11:44:05;4.03;;;3.67;;
13641;SDS011;6894;52.196;9.904;2023-06-24T11:46:33;3.85;;;3.45;;
13641;SDS011;6894;52.196;9.904;2023-06-24T11:49:03;4.03;;;3.67;;
13641;SDS011;6894;52.196;9.904;2023-06-24T11:51:30;3.65;;;3.35;;
13641;SDS011;6894;52.196;9.904;2023-06-24T11:53:58;3.63;;;3.33;;
13641;SDS011;6894;52.196;9.904;2023-06-24T11:56:33;3.85;;;3.55;;
13641;SDS011;6894;52.196;9.904;2023-06-24T11:59:00;3.83;;;3.42;;
13641;SDS011;6894;52.196;9.904;2023-06-24T12:01:31;4.20;;;3.67;;
13641;SDS011;6894;52.196;9.904;2023-06-24T12:03:59;4.03;;;3.58;;
13641;SDS011;6894;52.196;9.904;2023-06-24T12:06:26;3.13;;;2.85;;
13641;SDS011;6894;52.196;9.904;2023-06-24T12:08:53;4.05;;;3.65;;
13641;SDS011;6894;52.196;9.904;2023-06-24T12:11:20;3.97;;;3.33;;
13641;SDS011;6894;52.196;9.904;2023-06-24T12:13:46;4.20;;;3.80;;
13641;SDS011;6894;52.196;9.904;2023-06-24T12:16:13;3.88;;;3.58;;
13641;SDS011;6894;52.196;9.904;2023-06-24T12:18:41;4.32;;;3.92;;
13641;SDS011;6894;52.196;9.904;2023-06-24T12:21:08;4.00;;;3.70;;
13641;SDS011;6894;52.196;9.904;2023-06-24T12:23:35;3.90;;;3.50;;
13641;SDS011;6894;52.196;9.904;2023-06-24T12:26:02;5.05;;;3.97;;
13641;SDS011;6894;52.196;9.904;2023-06-24T12:28:28;4.40;;;4.00;;
13641;SDS011;6894;52.196;9.904;2023-06-24T12:30:55;4.68;;;4.20;;
13641;SDS011;6894;52.196;9.904;2023-06-24T12:33:22;5.53;;;4.00;;
13641;SDS011;6894;52.196;9.904;2023-06-24T12:35:50;4.10;;;3.70;;
13641;SDS011;6894;52.196;9.904;2023-06-24T12:38:16;5.45;;;4.13;;
13641;SDS011;6894;52.196;9.904;2023-06-24T12:40:43;4.15;;;3.42;;
13641;SDS011;6894;52.196;9.904;2023-06-24T12:43:10;5.63;;;3.90;;
13641;SDS011;6894;52.196;9.904;2023-06-24T12:45:37;4.68;;;4.22;;
13641;SDS011;6894;52.196;9.904;2023-06-24T12:48:04;4.22;;;3.92;;
13641;SDS011;6894;52.196;9.904;2023-06-24T12:50:31;3.75;;;3.45;;
13641;SDS011;6894;52.196;9.904;2023-06-24T12:52:59;4.63;;;4.22;;
13641;SDS011;6894;52.196;9.904;2023-06-24T12:55:26;4.45;;;3.97;;
13641;SDS011;6894;52.196;9.904;2023-06-24T12:57:53;4.40;;;4.00;;
13641;SDS011;6894;52.196;9.904;2023-06-24T13:00:20;4.55;;;3.40;;
13641;SDS011;6894;52.196;9.904;2023-06-24T13:02:47;5.25;;;3.70;;
13641;SDS011;6894;52.196;9.904;2023-06-24T13:05:15;5.57;;;4.07;;
13641;SDS011;6894;52.196;9.904;2023-06-24T13:07:41;4.32;;;3.65;;
13641;SDS011;6894;52.196;9.904;2023-06-24T13:10:10;4.40;;;3.97;;
13641;SDS011;6894;52.196;9.904;2023-06-24T13:12:37;4.60;;;3.50;;
13641;SDS011;6894;52.196;9.904;2023-06-24T13:15:05;4.55;;;4.07;;
13641;SDS011;6894;52.196;9.904;2023-06-24T13:17:34;4.47;;;4.07;;
13641;SDS011;6894;52.196;9.904;2023-06-24T13:20:01;3.83;;;3.53;;
13641;SDS011;6894;52.196;9.904;2023-06-24T13:22:29;4.20;;;3.78;;
13641;SDS011;6894;52.196;9.904;2023-06-24T13:24:56;4.65;;;3.78;;
13641;SDS011;6894;52.196;9.904;2023-06-24T13:27:24;4.45;;;4.05;;
13641;SDS011;6894;52.196;9.904;2023-06-24T13:29:50;4.25;;;3.85;;
13641;SDS011;6894;52.196;9.904;2023-06-24T13:32:17;3.92;;;3.60;;
13641;SDS011;6894;52.196;9.904;2023-06-24T13:34:44;4.30;;;4.00;;
13641;SDS011;6894;52.196;9.904;2023-06-24T13:37:11;4.30;;;4.00;;
13641;SDS011;6894;52.196;9.904;2023-06-24T13:39:38;4.03;;;3.67;;
13641;SDS011;6894;52.196;9.904;2023-06-24T13:42:05;3.65;;;3.35;;
13641;SDS011;6894;52.196;9.904;2023-06-24T13:44:33;4.22;;;3.92;;
13641;SDS011;6894;52.196;9.904;2023-06-24T13:47:00;4.40;;;4.00;;
13641;SDS011;6894;52.196;9.904;2023-06-24T13:49:27;3.72;;;3.42;;
13641;SDS011;6894;52.196;9.904;2023-06-24T13:51:54;4.05;;;3.60;;
13641;SDS011;6894;52.196;9.904;2023-06-24T13:54:20;4.03;;;3.63;;
13641;SDS011;6894;52.196;9.904;2023-06-24T13:56:47;4.25;;;3.92;;
13641;SDS011;6894;52.196;9.904;2023-06-24T13:59:14;4.30;;;3.95;;
13641;SDS011;6894;52.196;9.904;2023-06-24T14:01:42;4.05;;;3.65;;
13641;SDS011;6894;52.196;9.904;2023-06-24T14:04:08;4.65;;;3.95;;
13641;SDS011;6894;52.196;9.904;2023-06-24T14:06:35;4.13;;;3.83;;
13641;SDS011;6894;52.196;9.904;2023-06-24T14:09:02;4.15;;;3.75;;
13641;SDS011;6894;52.196;9.904;2023-06-24T14:11:29;5.05;;;4.18;;
13641;SDS011;6894;52.196;9.904;2023-06-24T14:13:55;4.47;;;3.88;;
13641;SDS011;6894;52.196;9.904;2023-06-24T14:16:22;4.68;;;4.28;;
13641;SDS011;6894;52.196;9.904;2023-06-24T14:18:50;4.10;;;3.60;;
13641;SDS011;6894;52.196;9.904;2023-06-24T14:21:17;3.85;;;3.55;;
13641;SDS011;6894;52.196;9.904;2023-06-24T14:23:44;3.90;;;3.60;;
13641;SDS011;6894;52.196;9.904;2023-06-24T14:26:10;3.80;;;3.50;;
13641;SDS011;6894;52.196;9.904;2023-06-24T14:28:37;3.90;;;3.55;;
13641;SDS011;6894;52.196;9.904;2023-06-24T14:31:04;3.92;;;3.55;;
13641;SDS011;6894;52.196;9.904;2023-06-24T14:33:31;3.42;;;3.10;;
13641;SDS011;6894;52.196;9.904;2023-06-24T14:35:59;3.85;;;3.55;;
13641;SDS011;6894;52.196;9.904;2023-06-24T14:38:25;4.20;;;3.42;;
13641;SDS011;6894;52.196;9.904;2023-06-24T14:40:52;4.60;;;3.90;;
13641;SDS011;6894;52.196;9.904;2023-06-24T14:43:21;3.88;;;3.58;;
13641;SDS011;6894;52.196;9.904;2023-06-24T14:45:47;4.25;;;3.85;;
13641;SDS011;6894;52.196;9.904;2023-06-24T14:48:14;4.97;;;3.95;;
13641;SDS011;6894;52.196;9.904;2023-06-24T14:50:41;5.93;;;3.45;;
13641;SDS011;6894;52.196;9.904;2023-06-24T14:53:09;4.13;;;3.67;;
13641;SDS011;6894;52.196;9.904;2023-06-24T14:55:35;6.63;;;3.60;;
13641;SDS011;6894;52.196;9.904;2023-06-24T14:58:02;3.88;;;3.47;;
13641;SDS011;6894;52.196;9.904;2023-06-24T15:00:29;4.47;;;3.58;;
13641;SDS011;6894;52.196;9.904;2023-06-24T15:02:56;4.10;;;3.70;;
13641;SDS011;6894;52.196;9.904;2023-06-24T15:05:22;4.28;;;3.50;;
13641;SDS011;6894;52.196;9.904;2023-06-24T15:07:49;4.20;;;3.83;;